Portada
METAR-TAF:

METAR-TAF

Aeroports :

Tsushima, Japó

latitud: 34-17N, longitud: 129-20E, altitud: 63 m

Observació

L'informe es va fer fa 5 hores i 13 minuts, a les 11:00 UTC
Vent 11 kt del Nord/Nord-Est
Temperatura 11°C
Humitat 76%
Pressió 1014 hPa
Visibilitat 10 km o més
Escasses núvols a una alçada de 500 ft
Núvols disperses a una alçada de 700 ft
Cel ennuvolat a una alçada de 1000 ft
xàfecs de pluja

METAR: RJDT 251100Z 03011KT 9999 -SHRA FEW005 SCT007 BKN010 11/07 Q1014

Hora: 01:13 (16:13 UTC)


TAF: manca

Observacions i pronòstics meteorològics de més de 4000 aeroports (METAR i TAF).

Les estacions disponibles són els punts grocs i vermells al mapa.

Posi el ratolí al punt desitjat per veure el nom de l'estació.

Feu clic per veure les observacions i els pronòstics meteorològics.

Per canviar el mapa: feu clic els botons verds amb una creu de color negre per apropar; al botó verd amb un guió per allunyar la imatge; o en les fletxes verdes per a mapes adjacents.


METAR-TAF: